createdAt,value
2018-03-04T00:01:47.572Z,53.00
2018-03-04T00:04:16.651Z,51.43
2018-03-04T00:06:45.734Z,49.87
2018-03-04T00:09:14.804Z,55.37
2018-03-04T00:11:43.866Z,55.03
2018-03-04T00:14:12.164Z,54.13
2018-03-04T00:16:41.319Z,55.90
2018-03-04T00:19:09.626Z,54.60
2018-03-04T00:21:37.909Z,53.73
2018-03-04T00:24:06.162Z,54.97
2018-03-04T00:26:34.477Z,55.27
2018-03-04T00:29:02.795Z,55.23
2018-03-04T00:31:31.060Z,56.27
2018-03-04T00:34:00.108Z,55.40
2018-03-04T00:36:28.426Z,54.63
2018-03-04T00:38:57.486Z,50.07
2018-03-04T00:41:25.742Z,54.67
2018-03-04T00:43:54.028Z,54.33
2018-03-04T00:46:22.833Z,54.10
2018-03-04T00:48:52.025Z,54.33
2018-03-04T00:51:20.455Z,58.00
2018-03-04T00:53:49.482Z,58.27
2018-03-04T00:56:17.828Z,54.40
2018-03-04T00:58:46.072Z,59.63
2018-03-04T01:01:14.422Z,53.00
2018-03-04T01:03:42.693Z,55.90
2018-03-04T01:06:10.980Z,56.37
2018-03-04T01:08:39.244Z,52.77
2018-03-04T01:11:07.547Z,53.00
2018-03-04T01:13:35.890Z,56.77
2018-03-04T01:16:04.892Z,49.87
2018-03-04T01:18:33.456Z,58.03
2018-03-04T01:21:01.742Z,52.93
2018-03-04T01:23:30.788Z,54.43
2018-03-04T01:25:59.050Z,54.83
2018-03-04T01:28:27.681Z,53.07
2018-03-04T01:30:56.799Z,55.70
2018-03-04T01:33:25.077Z,51.20
2018-03-04T01:35:54.108Z,57.10
2018-03-04T01:38:22.385Z,52.80
2018-03-04T01:40:50.665Z,54.17
2018-03-04T01:43:18.931Z,53.20
2018-03-04T01:45:48.154Z,52.63
2018-03-04T01:48:16.761Z,53.43
2018-03-04T01:50:45.185Z,50.23
2018-03-04T01:53:13.456Z,52.20
2018-03-04T01:55:41.746Z,54.67
2018-03-04T01:58:10.026Z,53.03
2018-03-04T02:00:38.317Z,55.00
2018-03-04T02:03:06.566Z,48.20
2018-03-04T02:05:34.872Z,46.20
2018-03-04T02:08:03.156Z,51.87
2018-03-04T02:10:32.054Z,47.83
2018-03-04T02:13:00.381Z,50.93
2018-03-04T02:15:29.408Z,50.37
2018-03-04T02:17:57.713Z,48.00
2018-03-04T02:20:25.995Z,48.27
2018-03-04T02:22:54.355Z,48.53
2018-03-04T02:25:22.580Z,48.83
2018-03-04T02:27:51.623Z,48.17
2018-03-04T02:30:19.932Z,46.23
2018-03-04T02:32:49.731Z,48.43
2018-03-04T02:35:18.279Z,47.40
2018-03-04T02:37:46.567Z,44.00
2018-03-04T02:40:14.830Z,48.07
2018-03-04T02:42:44.062Z,39.10
2018-03-04T02:45:13.271Z,48.80
2018-03-04T02:47:41.530Z,46.50
2018-03-04T02:50:10.481Z,49.00
2018-03-04T02:52:39.524Z,48.23
2018-03-04T02:55:07.818Z,47.53
2018-03-04T02:57:36.089Z,48.80
2018-03-04T03:00:04.395Z,44.60
2018-03-04T03:02:32.678Z,49.00
2018-03-04T03:05:01.837Z,43.30
2018-03-04T03:07:30.102Z,46.53
2018-03-04T03:09:59.755Z,47.83
2018-03-04T03:12:30.078Z,47.93
2018-03-04T03:14:58.311Z,48.60
2018-03-04T03:17:26.596Z,51.77
2018-03-04T03:19:54.923Z,49.10
2018-03-04T03:22:25.310Z,50.57
2018-03-04T03:24:53.596Z,53.00
2018-03-04T03:27:21.875Z,53.60
2018-03-04T03:29:50.166Z,53.80
2018-03-04T03:32:18.406Z,51.60
2018-03-04T03:34:46.714Z,53.70
2018-03-04T03:37:14.965Z,54.63
2018-03-04T03:39:43.199Z,54.60
2018-03-04T03:42:12.222Z,52.50
2018-03-04T03:44:40.495Z,56.57
2018-03-04T03:47:08.755Z,52.37
2018-03-04T03:49:37.035Z,50.73
2018-03-04T03:52:06.781Z,53.80
2018-03-04T03:54:35.034Z,53.10
2018-03-04T03:57:03.319Z,52.53
2018-03-04T03:59:31.607Z,51.37
2018-03-04T04:01:59.877Z,50.23
2018-03-04T04:04:28.153Z,53.27
2018-03-04T04:06:56.709Z,56.17
2018-03-04T04:09:25.721Z,51.77
2018-03-04T04:11:53.978Z,54.00
2018-03-04T04:14:23.014Z,52.23
2018-03-04T04:16:51.317Z,55.20
2018-03-04T04:19:19.564Z,52.73
2018-03-04T04:21:48.002Z,53.10
2018-03-04T04:24:16.226Z,52.33
2018-03-04T04:26:44.740Z,51.07
2018-03-04T04:29:12.991Z,51.97
2018-03-04T04:31:41.378Z,51.90
2018-03-04T04:34:10.233Z,50.90
2018-03-04T04:36:38.530Z,50.60
2018-03-04T04:39:06.792Z,50.63
2018-03-04T04:41:35.857Z,49.30
2018-03-04T04:44:04.139Z,50.23
2018-03-04T04:46:32.400Z,50.70
2018-03-04T04:49:00.666Z,49.53
2018-03-04T04:51:29.891Z,51.40
2018-03-04T04:53:58.234Z,49.73
2018-03-04T04:56:27.059Z,49.70
2018-03-04T04:58:55.335Z,50.70
2018-03-04T05:01:24.151Z,49.60
2018-03-04T05:03:52.401Z,49.80
2018-03-04T05:06:21.462Z,53.17
2018-03-04T05:08:50.573Z,50.90
2018-03-04T05:11:19.957Z,50.23
2018-03-04T05:13:48.258Z,49.47
2018-03-04T05:16:17.740Z,50.80
2018-03-04T05:18:45.994Z,54.13
2018-03-04T05:21:14.297Z,54.80
2018-03-04T05:23:42.577Z,54.33
2018-03-04T05:26:10.874Z,53.70
2018-03-04T05:28:39.133Z,51.50
2018-03-04T05:31:07.392Z,49.97
2018-03-04T05:33:36.184Z,50.47
2018-03-04T05:36:04.447Z,50.87
2018-03-04T05:38:33.480Z,47.40
2018-03-04T05:41:01.769Z,48.03
2018-03-04T05:43:30.055Z,50.90
2018-03-04T05:45:58.811Z,49.60
2018-03-04T05:48:27.070Z,50.20
2018-03-04T05:50:55.343Z,50.37
2018-03-04T05:53:24.413Z,53.17
2018-03-04T05:55:53.820Z,54.37
2018-03-04T05:58:23.601Z,50.40
2018-03-04T06:00:51.861Z,47.57
2018-03-04T06:03:21.780Z,49.83
2018-03-04T06:05:50.016Z,48.90
2018-03-04T06:08:19.068Z,48.33
2018-03-04T06:10:47.376Z,45.67
2018-03-04T06:13:17.026Z,49.10
2018-03-04T06:15:45.289Z,49.17
2018-03-04T06:18:13.907Z,54.20
2018-03-04T06:20:42.164Z,47.13
2018-03-04T06:23:10.444Z,48.80
2018-03-04T06:25:38.680Z,47.33
2018-03-04T06:28:07.716Z,48.20
2018-03-04T06:30:36.353Z,47.90
2018-03-04T06:33:05.463Z,48.87
2018-03-04T06:35:34.501Z,50.80
2018-03-04T06:38:02.770Z,49.37
2018-03-04T06:40:32.035Z,45.57
2018-03-04T06:43:00.309Z,44.03
2018-03-04T06:45:29.367Z,47.60
2018-03-04T06:47:57.673Z,48.17
2018-03-04T06:50:25.947Z,49.07
2018-03-04T06:52:54.209Z,46.70
2018-03-04T06:55:23.984Z,49.57
2018-03-04T06:57:52.286Z,49.37
2018-03-04T07:00:20.558Z,44.37
2018-03-04T07:02:48.841Z,46.00
2018-03-04T07:05:17.731Z,44.87
2018-03-04T07:07:46.007Z,45.83
2018-03-04T07:10:14.269Z,45.03
2018-03-04T07:12:42.555Z,42.20
2018-03-04T07:15:10.854Z,43.57
2018-03-04T07:17:39.981Z,46.87
2018-03-04T07:20:08.262Z,45.03
2018-03-04T07:22:36.533Z,44.77
2018-03-04T07:25:05.576Z,45.83
2018-03-04T07:27:33.844Z,45.63
2018-03-04T07:30:02.147Z,50.53
2018-03-04T07:32:30.406Z,46.83
2018-03-04T07:34:58.671Z,45.03
2018-03-04T07:37:27.016Z,44.70
2018-03-04T07:39:56.775Z,46.07
2018-03-04T07:42:25.865Z,44.67
2018-03-04T07:44:54.143Z,45.97
2018-03-04T07:47:22.370Z,45.03
2018-03-04T07:49:52.154Z,43.67
2018-03-04T07:52:20.416Z,45.53
2018-03-04T07:54:48.875Z,46.57
2018-03-04T07:57:18.062Z,41.37
2018-03-04T07:59:47.432Z,43.07
2018-03-04T08:02:15.681Z,43.07
2018-03-04T08:04:44.649Z,43.40
2018-03-04T08:07:15.273Z,38.93
2018-03-04T08:09:43.560Z,40.57
2018-03-04T08:12:13.445Z,41.50
2018-03-04T08:14:41.697Z,41.67
2018-03-04T08:17:09.990Z,39.03
2018-03-04T08:19:38.276Z,41.60
2018-03-04T08:22:08.061Z,41.93
2018-03-04T08:24:39.242Z,41.90
2018-03-04T08:27:20.304Z,38.37
2018-03-04T08:29:49.241Z,34.37
2018-03-04T08:32:18.276Z,34.00
2018-03-04T08:34:46.550Z,37.60
2018-03-04T08:37:15.693Z,39.07
2018-03-04T08:39:44.726Z,38.93
2018-03-04T08:42:13.026Z,40.63
2018-03-04T08:44:41.617Z,39.97
2018-03-04T08:47:10.689Z,38.97
2018-03-04T08:49:39.851Z,49.77
2018-03-04T08:52:09.149Z,41.20
2018-03-04T08:54:38.201Z,35.73
2018-03-04T08:57:06.916Z,41.67
2018-03-04T08:59:35.185Z,40.93
2018-03-04T09:02:03.467Z,39.17
2018-03-04T09:04:31.737Z,39.30
2018-03-04T09:06:59.978Z,36.90
2018-03-04T09:09:28.278Z,36.73
2018-03-04T09:11:56.577Z,28.37
2018-03-04T09:14:26.377Z,30.60
2018-03-04T09:16:54.644Z,31.23
2018-03-04T09:19:23.692Z,31.80
2018-03-04T09:21:52.777Z,26.37
2018-03-04T09:24:21.031Z,27.07
2018-03-04T09:26:49.274Z,28.77
2018-03-04T09:29:17.611Z,30.03
2018-03-04T09:31:46.666Z,28.67
2018-03-04T09:34:16.175Z,30.90
2018-03-04T09:36:44.817Z,28.23
2018-03-04T09:39:13.897Z,28.63
2018-03-04T09:41:42.976Z,26.20
2018-03-04T09:44:13.356Z,22.80
2018-03-04T09:46:41.953Z,25.20
2018-03-04T09:49:10.225Z,28.80
2018-03-04T09:51:39.411Z,25.30
2018-03-04T09:54:08.601Z,25.13
2018-03-04T09:56:36.927Z,24.10
2018-03-04T09:59:05.183Z,25.03
2018-03-04T10:01:33.663Z,21.97
2018-03-04T10:04:02.757Z,22.60
2018-03-04T10:06:31.397Z,23.40
2018-03-04T10:08:59.691Z,27.60
2018-03-04T10:11:28.739Z,30.93
2018-03-04T10:13:56.980Z,30.70
2018-03-04T10:16:26.182Z,29.90
2018-03-04T10:18:54.623Z,29.90
2018-03-04T10:21:23.081Z,28.93
2018-03-04T10:23:51.480Z,26.30
2018-03-04T10:26:19.761Z,21.83
2018-03-04T10:28:48.012Z,20.50
2018-03-04T10:31:16.333Z,19.27
2018-03-04T10:33:45.659Z,20.83
2018-03-04T10:36:14.658Z,20.00
2018-03-04T10:38:43.194Z,18.83
2018-03-04T10:41:12.174Z,17.70
2018-03-04T10:43:40.743Z,18.00
2018-03-04T10:46:08.991Z,19.37
2018-03-04T10:48:38.046Z,19.30
2018-03-04T10:51:07.106Z,18.13
2018-03-04T10:53:35.384Z,17.13
2018-03-04T10:56:03.649Z,18.77
2018-03-04T10:58:31.899Z,17.53
2018-03-04T11:01:05.941Z,17.67
2018-03-04T11:03:35.324Z,18.83
2018-03-04T11:06:04.388Z,22.70
2018-03-04T11:08:32.639Z,25.53
2018-03-04T11:11:00.947Z,28.80
2018-03-04T11:13:30.720Z,26.37
2018-03-04T11:15:59.023Z,28.57
2018-03-04T11:18:28.457Z,26.40
2018-03-04T11:20:58.699Z,26.53
2018-03-04T11:23:27.378Z,29.00
2018-03-04T11:25:56.423Z,27.87
2018-03-04T11:28:24.948Z,26.60
2018-03-04T11:30:53.215Z,25.07
2018-03-04T11:33:22.324Z,25.87
2018-03-04T11:35:51.393Z,25.13
2018-03-04T11:38:19.713Z,26.00
2018-03-04T11:40:47.978Z,22.00
2018-03-04T11:43:16.205Z,19.80
2018-03-04T11:45:44.886Z,16.80
2018-03-04T11:48:15.750Z,18.70
2018-03-04T11:50:44.030Z,18.60
2018-03-04T11:53:12.277Z,16.20
2018-03-04T11:55:41.356Z,18.67
2018-03-04T11:58:09.667Z,17.03
2018-03-04T12:00:38.006Z,17.70
2018-03-04T12:03:07.064Z,18.93
2018-03-04T12:05:35.345Z,18.10
2018-03-04T12:08:03.618Z,17.43
2018-03-04T12:10:32.665Z,20.33
2018-03-04T12:13:01.083Z,18.07
2018-03-04T12:15:29.371Z,19.73
2018-03-04T12:17:58.198Z,17.40
2018-03-04T12:20:28.068Z,18.50
2018-03-04T12:22:56.347Z,19.07
2018-03-04T12:25:26.145Z,18.80
2018-03-04T12:27:55.008Z,16.70
2018-03-04T12:30:23.299Z,15.93
2018-03-04T12:32:51.559Z,18.97
2018-03-04T12:35:20.152Z,18.40
2018-03-04T12:37:49.266Z,17.30
2018-03-04T12:40:17.527Z,18.07
2018-03-04T12:42:46.889Z,20.07
2018-03-04T12:45:15.947Z,15.50
2018-03-04T12:47:44.213Z,12.73
2018-03-04T12:50:13.174Z,15.40
2018-03-04T12:52:41.464Z,13.63
2018-03-04T12:55:09.739Z,13.90
2018-03-04T12:57:38.031Z,11.23
2018-03-04T13:00:07.436Z,14.03
2018-03-04T13:02:35.751Z,15.23
2018-03-04T13:05:04.067Z,15.40
2018-03-04T13:07:33.539Z,12.67
2018-03-04T13:10:04.439Z,12.90
2018-03-04T13:12:33.712Z,14.17
2018-03-04T13:15:03.659Z,13.03
2018-03-04T13:17:32.678Z,12.20
2018-03-04T13:20:01.077Z,13.20
2018-03-04T13:22:30.174Z,11.93
2018-03-04T13:24:59.300Z,14.40
2018-03-04T13:27:27.631Z,13.87
2018-03-04T13:29:55.924Z,13.07
2018-03-04T13:32:24.195Z,13.37
2018-03-04T13:34:52.510Z,11.27
2018-03-04T13:37:21.572Z,12.63
2018-03-04T13:39:50.974Z,11.50
2018-03-04T13:42:19.262Z,16.63
2018-03-04T13:44:47.713Z,14.70
2018-03-04T13:47:15.987Z,12.63
2018-03-04T13:49:45.059Z,13.93
2018-03-04T13:52:13.335Z,12.63
2018-03-04T13:54:41.666Z,12.20
2018-03-04T13:57:10.817Z,14.13
2018-03-04T13:59:39.114Z,12.20
2018-03-04T14:02:07.388Z,11.63
2018-03-04T14:04:35.692Z,10.57
2018-03-04T14:07:03.958Z,12.90
2018-03-04T14:09:32.576Z,14.30
2018-03-04T14:12:00.823Z,11.93
2018-03-04T14:14:29.128Z,11.70
2018-03-04T14:16:59.241Z,11.53
2018-03-04T14:19:27.613Z,11.93
2018-03-04T14:21:57.553Z,12.50
2018-03-04T14:24:26.612Z,11.70
2018-03-04T14:26:55.785Z,11.03
2018-03-04T14:29:24.670Z,11.77
2018-03-04T14:31:52.953Z,10.73
2018-03-04T14:34:21.329Z,12.00
2018-03-04T14:36:49.659Z,11.50
2018-03-04T14:39:17.922Z,13.07
2018-03-04T14:41:46.228Z,12.03
2018-03-04T14:44:15.000Z,10.50
2018-03-04T14:46:44.772Z,11.40
2018-03-04T14:49:13.090Z,10.63
2018-03-04T14:51:41.369Z,11.67
2018-03-04T14:54:09.619Z,10.73
2018-03-04T14:56:38.244Z,11.90
2018-03-04T14:59:06.900Z,10.77
2018-03-04T15:01:35.159Z,10.90
2018-03-04T15:04:03.448Z,10.27
2018-03-04T15:06:32.283Z,11.33
2018-03-04T15:09:00.547Z,9.30
2018-03-04T15:11:29.592Z,12.57
2018-03-04T15:13:57.902Z,8.60
2018-03-04T15:16:27.012Z,12.47
2018-03-04T15:18:55.288Z,13.17
2018-03-04T15:21:23.563Z,11.23
2018-03-04T15:23:51.852Z,15.60
2018-03-04T15:26:20.121Z,15.13
2018-03-04T15:28:48.421Z,15.57
2018-03-04T15:31:17.432Z,15.20
2018-03-04T15:33:45.735Z,14.07
2018-03-04T15:36:14.008Z,18.70
2018-03-04T15:38:43.209Z,15.20
2018-03-04T15:41:11.499Z,18.97
2018-03-04T15:43:39.828Z,16.10
2018-03-04T15:46:08.915Z,16.17
2018-03-04T15:48:37.930Z,15.90
2018-03-04T15:51:06.202Z,16.83
2018-03-04T15:53:34.558Z,17.70
2018-03-04T15:56:02.839Z,16.30
2018-03-04T15:58:31.900Z,17.10
2018-03-04T16:01:00.249Z,17.07
2018-03-04T16:03:29.294Z,15.13
2018-03-04T16:05:57.566Z,14.00
2018-03-04T16:08:25.866Z,13.63
2018-03-04T16:10:54.137Z,14.20
2018-03-04T16:13:22.831Z,16.63
2018-03-04T16:15:51.371Z,14.70
2018-03-04T16:18:19.834Z,13.53
2018-03-04T16:20:48.534Z,14.87
2018-03-04T16:23:17.441Z,15.23
2018-03-04T16:25:45.704Z,16.50
2018-03-04T16:28:13.977Z,16.33
2018-03-04T16:30:42.273Z,15.83
2018-03-04T16:33:10.822Z,17.30
2018-03-04T16:35:39.852Z,16.33
2018-03-04T16:38:09.032Z,15.20
2018-03-04T16:40:37.462Z,15.07
2018-03-04T16:43:07.029Z,17.70
2018-03-04T16:45:35.333Z,16.13
2018-03-04T16:48:03.660Z,18.43
2018-03-04T16:50:32.691Z,16.83
2018-03-04T16:53:00.959Z,18.33
2018-03-04T16:55:29.260Z,16.47
2018-03-04T16:57:57.578Z,16.83
2018-03-04T17:00:26.604Z,18.27
2018-03-04T17:02:55.319Z,18.20
2018-03-04T17:05:23.661Z,18.47
2018-03-04T17:07:53.581Z,19.53
2018-03-04T17:10:21.870Z,19.53
2018-03-04T17:12:50.192Z,20.90
2018-03-04T17:15:19.227Z,19.63
2018-03-04T17:17:47.524Z,20.93
2018-03-04T17:20:15.818Z,22.23
2018-03-04T17:22:44.084Z,22.50
2018-03-04T17:25:12.396Z,22.47
2018-03-04T17:27:40.697Z,22.33
2018-03-04T17:30:10.282Z,21.60
2018-03-04T17:32:38.758Z,23.50
2018-03-04T17:35:07.134Z,24.53
2018-03-04T17:37:35.390Z,24.53
2018-03-04T17:40:03.821Z,40.20
2018-03-04T17:42:32.951Z,29.40
2018-03-04T17:45:01.223Z,34.33
2018-03-04T17:47:29.599Z,27.37
2018-03-04T17:49:58.613Z,28.20
2018-03-04T17:52:26.924Z,26.97
2018-03-04T17:54:55.311Z,27.17
2018-03-04T17:57:23.677Z,28.50
2018-03-04T17:59:51.949Z,31.20
2018-03-04T18:02:20.232Z,30.00
2018-03-04T18:04:48.524Z,29.60
2018-03-04T18:07:16.827Z,28.37
2018-03-04T18:09:45.148Z,26.20
2018-03-04T18:12:13.435Z,26.83
2018-03-04T18:14:42.509Z,26.90
2018-03-04T18:17:11.199Z,28.67
2018-03-04T18:19:39.452Z,27.10
2018-03-04T18:22:07.788Z,28.40
2018-03-04T18:24:36.390Z,31.50
2018-03-04T18:27:04.649Z,31.33
2018-03-04T18:29:33.253Z,28.80
2018-03-04T18:32:01.689Z,28.20
2018-03-04T18:34:30.070Z,28.93
2018-03-04T18:37:02.346Z,26.30
2018-03-04T18:39:31.320Z,29.77
2018-03-04T18:41:59.665Z,29.57
2018-03-04T18:44:28.722Z,31.23
2018-03-04T18:46:57.012Z,28.80
2018-03-04T18:49:25.306Z,28.83
2018-03-04T18:51:53.597Z,27.77
2018-03-04T18:54:22.492Z,27.73
2018-03-04T18:56:50.770Z,28.03
2018-03-04T18:59:19.846Z,28.37
2018-03-04T19:01:48.103Z,31.10
2018-03-04T19:04:17.129Z,28.00
2018-03-04T19:06:47.607Z,30.03
2018-03-04T19:09:15.905Z,27.47
2018-03-04T19:11:44.941Z,30.37
2018-03-04T19:14:14.586Z,27.63
2018-03-04T19:16:43.915Z,26.73
2018-03-04T19:19:12.224Z,27.20
2018-03-04T19:21:41.264Z,27.37
2018-03-04T19:24:10.216Z,27.17
2018-03-04T19:26:38.517Z,29.23
2018-03-04T19:29:07.599Z,29.40
2018-03-04T19:31:37.172Z,27.83
2018-03-04T19:34:05.479Z,28.30
2018-03-04T19:36:35.914Z,28.47
2018-03-04T19:39:05.405Z,27.00
2018-03-04T19:41:33.905Z,30.50
2018-03-04T19:44:02.375Z,27.43
2018-03-04T19:46:31.636Z,26.40
2018-03-04T19:48:59.931Z,25.53
2018-03-04T19:51:28.221Z,25.70
2018-03-04T19:53:56.809Z,24.13
2018-03-04T19:56:25.718Z,26.60
2018-03-04T19:58:55.131Z,28.20
2018-03-04T20:01:24.408Z,26.90
2018-03-04T20:03:52.644Z,25.73
2018-03-04T20:06:21.072Z,28.90
2018-03-04T20:08:51.820Z,28.70
2018-03-04T20:11:20.153Z,29.40
2018-03-04T20:13:49.595Z,28.53
2018-03-04T20:16:18.130Z,28.03
2018-03-04T20:18:47.958Z,29.47
2018-03-04T20:21:16.282Z,26.93
2018-03-04T20:23:45.126Z,26.40
2018-03-04T20:26:13.417Z,28.10
2018-03-04T20:28:43.243Z,26.90
2018-03-04T20:31:12.318Z,27.43
2018-03-04T20:33:42.112Z,27.20
2018-03-04T20:36:10.413Z,30.17
2018-03-04T20:38:40.197Z,30.20
2018-03-04T20:41:08.456Z,30.00
2018-03-04T20:43:36.963Z,27.67
2018-03-04T20:46:05.477Z,29.00
2018-03-04T20:48:33.761Z,28.53
2018-03-04T20:51:02.833Z,27.17
2018-03-04T20:53:31.890Z,29.00
2018-03-04T20:56:02.064Z,27.47
2018-03-04T20:58:30.335Z,22.10
2018-03-04T21:00:58.618Z,21.60
2018-03-04T21:03:26.887Z,20.90
2018-03-04T21:05:55.168Z,21.00
2018-03-04T21:08:23.510Z,18.77
2018-03-04T21:10:52.332Z,15.90
2018-03-04T21:13:20.634Z,20.30
2018-03-04T21:15:49.969Z,17.30
2018-03-04T21:18:18.249Z,20.80
2018-03-04T21:20:46.666Z,22.77
2018-03-04T21:23:14.963Z,25.43
2018-03-04T21:25:43.374Z,23.40
2018-03-04T21:28:13.375Z,22.40
2018-03-04T21:30:41.642Z,23.73
2018-03-04T21:33:09.936Z,26.83
2018-03-04T21:35:39.850Z,25.53
2018-03-04T21:38:08.882Z,24.13
2018-03-04T21:40:37.172Z,27.27
2018-03-04T21:43:05.430Z,25.50
2018-03-04T21:45:33.714Z,26.87
2018-03-04T21:48:01.998Z,30.57
2018-03-04T21:50:30.288Z,28.87
2018-03-04T21:52:58.584Z,28.23
2018-03-04T21:55:26.842Z,29.13
2018-03-04T21:57:55.108Z,31.00
2018-03-04T22:00:23.437Z,25.97
2018-03-04T22:02:51.699Z,30.20
2018-03-04T22:05:19.945Z,30.43
2018-03-04T22:07:48.256Z,27.10
2018-03-04T22:10:16.504Z,29.87
2018-03-04T22:12:44.777Z,30.50
2018-03-04T22:15:13.055Z,30.27
2018-03-04T22:17:41.347Z,30.47
2018-03-04T22:20:10.416Z,28.10
2018-03-04T22:22:38.682Z,28.40
2018-03-04T22:25:06.971Z,28.23
2018-03-04T22:27:36.251Z,25.57
2018-03-04T22:30:04.503Z,26.73
2018-03-04T22:32:33.704Z,26.87
2018-03-04T22:35:01.979Z,25.47
2018-03-04T22:37:30.297Z,24.60
2018-03-04T22:39:58.530Z,26.97
2018-03-04T22:42:28.307Z,25.00
2018-03-04T22:44:56.634Z,25.27
2018-03-04T22:47:25.161Z,27.07
2018-03-04T22:49:53.407Z,26.43
2018-03-04T22:52:22.449Z,27.60
2018-03-04T22:54:50.760Z,24.40
2018-03-04T22:57:19.016Z,25.73
2018-03-04T22:59:47.312Z,27.33
2018-03-04T23:02:17.039Z,26.70
2018-03-04T23:04:45.298Z,27.20
2018-03-04T23:07:15.078Z,28.80
2018-03-04T23:09:43.330Z,27.87
2018-03-04T23:12:12.374Z,28.00
2018-03-04T23:14:40.685Z,29.73
2018-03-04T23:17:08.972Z,28.37
2018-03-04T23:19:37.600Z,28.33
2018-03-04T23:22:05.855Z,30.50
2018-03-04T23:24:34.083Z,28.77
2018-03-04T23:27:02.388Z,30.13
2018-03-04T23:29:31.416Z,30.93
2018-03-04T23:31:59.705Z,25.77
2018-03-04T23:34:28.897Z,27.47
2018-03-04T23:36:57.725Z,28.67
2018-03-04T23:39:26.015Z,27.30
2018-03-04T23:41:54.807Z,27.97
2018-03-04T23:44:23.818Z,29.10
2018-03-04T23:46:52.464Z,28.27
2018-03-04T23:49:20.697Z,27.83
2018-03-04T23:51:48.957Z,26.73
2018-03-04T23:54:17.608Z,26.17
2018-03-04T23:56:45.854Z,27.70
2018-03-04T23:59:14.099Z,28.50
